Sousse, Tunisia
Current Conditions -  °F | °C
As of 2:30 AM on Sunday 26 Oct 2014 (Local Time) from DTMB Reporting Station
Clear Clear  
Wind Chill: 17°   Ceiling: Unl
Heat Index: 17°   Visibility: NA
Dew Point: 12°   Wind: 3mph
Humidity: 72%   Direction: 270°W
Pressure: 30.12"   Gusts: NA
Location:  35.82°N, 10.63°E
Report Text: DTMB 260130Z AUTO 27003KT NCD 17/12 Q1020
Loading
Personal Weather Stations






























Interactive Weather Map
Tropical Storm Tracking
New forecast layout! Learn more

10-Day Weather Forecast

Advertisements
Track Severe Weather on mobile